Date,TemperatureHighF,TemperatureAvgF,TemperatureLowF,DewpointHighF,DewpointAvgF,DewpointLowF,HumidityHigh,HumidityAvg,HumidityLow,PressureMaxIn,PressureMinIn,WindSpeedMaxMPH,WindSpeedAvgMPH,GustSpeedMaxMPH,PrecipitationSumIn
2013-4-1,68,52,35,31,19,3,53,31,8,30.01,29.81,21,7,0,0.00
2013-4-2,64,47,34,26,18,-2,54,34,7,29.91,29.72,23,7,0,0.00
2013-4-3,58,43,32,31,26,22,72,53,25,30.11,29.92,19,5,0,0.00
2013-4-4,71,48,26,30,20,8,77,41,10,30.19,30.02,12,4,0,0.00
2013-4-5,70,55,35,25,18,13,48,27,11,30.08,29.78,28,9,0,0.02
2013-4-6,69,52,35,32,24,19,62,35,17,29.96,29.78,16,6,0,0.00
2013-4-7,71,55,39,31,22,13,57,31,13,29.87,29.69,29,8,0,0.00
2013-4-8,70,53,34,29,21,14,54,31,13,29.71,29.31,30,8,0,0.03
2013-4-9,51,40,32,32,25,15,85,57,27,29.72,29.31,26,8,0,0.02
2013-4-10,43,35,30,28,24,18,88,67,43,29.82,29.69,19,8,0,0.00
2013-4-11,61,39,18,35,23,13,82,56,22,29.83,29.68,22,6,0,0.01
2013-4-12,64,46,32,37,26,16,89,53,17,29.89,29.75,19,5,0,0.00
2013-4-13,67,52,28,31,19,13,69,32,14,29.89,29.54,27,10,0,0.00
2013-4-14,63,53,45,28,25,21,47,34,23,29.60,29.51,32,14,0,0.02
2013-4-15,69,54,36,30,22,15,57,33,13,29.67,29.51,25,10,0,0.00
2013-4-16,73,58,39,24,16,4,40,21,10,29.75,29.55,29,13,0,0.00
2013-4-17,56,41,28,32,20,4,87,51,12,29.79,29.54,23,6,0,0.00
2013-4-18,37,28,20,20,16,7,77,61,41,30.09,29.78,14,5,0,0.01
2013-4-19,58,36,10,13,6,1,69,35,12,30.18,29.89,19,6,0,0.00
2013-4-20,58,46,36,30,19,8,56,36,25,29.97,29.79,18,5,0,0.00
2013-4-21,68,47,27,29,16,0,72,37,8,30.09,29.90,23,6,0,0.00
2013-4-22,74,55,32,27,16,11,49,25,10,29.99,29.73,29,10,0,0.01
2013-4-23,59,47,32,35,19,-44,73,37,1,30.01,29.73,31,10,0,0.00
2013-4-24,65,44,19,21,6,-12,58,29,4,30.11,29.95,22,6,0,0.00
2013-4-25,67,50,41,39,26,18,82,42,21,30.11,29.85,22,8,0,0.04
2013-4-26,70,51,39,42,34,25,90,58,20,30.23,29.99,19,6,0,0.03
2013-4-27,74,53,29,34,25,18,78,39,14,30.25,30.03,17,4,0,0.00
2013-4-28,78,57,31,26,12,-20,55,25,2,30.10,29.84,15,5,0,0.00
2013-4-29,82,60,35,25,16,7,46,21,7,29.94,29.70,26,7,0,0.00
2013-4-30,82,62,38,27,16,5,45,20,7,29.85,29.68,26,9,0,0.00